sensor_id;sensor_type;location;lat;lon;timestamp;pressure;altitude;pressure_sealevel;temperature;humidity
43420;BME280;29017;51.514;-0.178;2023-11-19T00:01:34;100388.69;;;14.55;95.10
43420;BME280;29017;51.514;-0.178;2023-11-19T00:04:01;100396.66;;;14.55;94.79
43420;BME280;29017;51.514;-0.178;2023-11-19T00:06:28;100380.91;;;14.47;94.39
43420;BME280;29017;51.514;-0.178;2023-11-19T00:08:55;100382.16;;;14.51;95.10
43420;BME280;29017;51.514;-0.178;2023-11-19T00:11:21;100369.91;;;14.50;94.75
43420;BME280;29017;51.514;-0.178;2023-11-19T00:13:48;100369.09;;;14.49;95.48
43420;BME280;29017;51.514;-0.178;2023-11-19T00:16:15;100372.97;;;14.47;95.14
43420;BME280;29017;51.514;-0.178;2023-11-19T00:18:43;100378.44;;;14.45;94.67
43420;BME280;29017;51.514;-0.178;2023-11-19T00:21:10;100372.97;;;14.47;95.04
43420;BME280;29017;51.514;-0.178;2023-11-19T00:23:37;100376.78;;;14.44;94.67
43420;BME280;29017;51.514;-0.178;2023-11-19T00:26:04;100377.19;;;14.41;94.31
43420;BME280;29017;51.514;-0.178;2023-11-19T00:28:32;100380.66;;;14.42;94.07
43420;BME280;29017;51.514;-0.178;2023-11-19T00:31:00;100385.13;;;14.41;94.09
43420;BME280;29017;51.514;-0.178;2023-11-19T00:33:27;100387.78;;;14.27;93.29
43420;BME280;29017;51.514;-0.178;2023-11-19T00:35:54;100384.38;;;14.33;94.26
43420;BME280;29017;51.514;-0.178;2023-11-19T00:38:22;100379.06;;;14.33;94.38
43420;BME280;29017;51.514;-0.178;2023-11-19T00:40:49;100376.00;;;14.29;93.77
43420;BME280;29017;51.514;-0.178;2023-11-19T00:43:15;100381.09;;;14.31;95.15
43420;BME280;29017;51.514;-0.178;2023-11-19T00:45:42;100375.00;;;14.30;94.64
43420;BME280;29017;51.514;-0.178;2023-11-19T00:48:09;100368.44;;;14.26;94.27
43420;BME280;29017;51.514;-0.178;2023-11-19T00:50:37;100372.91;;;14.26;94.67
43420;BME280;29017;51.514;-0.178;2023-11-19T00:53:05;100374.72;;;14.25;94.77
43420;BME280;29017;51.514;-0.178;2023-11-19T00:55:32;100371.25;;;14.25;95.06
43420;BME280;29017;51.514;-0.178;2023-11-19T00:57:59;100369.63;;;14.24;94.95
43420;BME280;29017;51.514;-0.178;2023-11-19T01:00:26;100364.97;;;14.26;95.34
43420;BME280;29017;51.514;-0.178;2023-11-19T01:02:53;100370.25;;;14.26;94.89
43420;BME280;29017;51.514;-0.178;2023-11-19T01:05:20;100373.09;;;14.24;94.54
43420;BME280;29017;51.514;-0.178;2023-11-19T01:07:49;100370.63;;;14.23;95.05
43420;BME280;29017;51.514;-0.178;2023-11-19T01:10:16;100371.66;;;14.22;95.39
43420;BME280;29017;51.514;-0.178;2023-11-19T01:12:45;100366.53;;;14.20;95.07
43420;BME280;29017;51.514;-0.178;2023-11-19T01:15:13;100371.56;;;14.15;94.59
43420;BME280;29017;51.514;-0.178;2023-11-19T01:17:40;100373.00;;;14.18;95.29
43420;BME280;29017;51.514;-0.178;2023-11-19T01:20:18;100362.44;;;14.18;95.06
43420;BME280;29017;51.514;-0.178;2023-11-19T01:22:47;100364.25;;;14.17;94.99
43420;BME280;29017;51.514;-0.178;2023-11-19T01:25:15;100366.53;;;14.20;95.56
43420;BME280;29017;51.514;-0.178;2023-11-19T01:27:42;100366.38;;;14.22;94.92
43420;BME280;29017;51.514;-0.178;2023-11-19T01:30:09;100364.50;;;14.22;94.63
43420;BME280;29017;51.514;-0.178;2023-11-19T01:32:39;100365.72;;;14.20;95.07
43420;BME280;29017;51.514;-0.178;2023-11-19T01:35:07;100373.66;;;14.20;94.92
43420;BME280;29017;51.514;-0.178;2023-11-19T01:37:34;100363.47;;;14.17;94.52
43420;BME280;29017;51.514;-0.178;2023-11-19T01:40:02;100372.31;;;14.09;93.54
43420;BME280;29017;51.514;-0.178;2023-11-19T01:42:35;100370.50;;;14.09;93.86
43420;BME280;29017;51.514;-0.178;2023-11-19T01:45:02;100360.91;;;14.08;93.86
43420;BME280;29017;51.514;-0.178;2023-11-19T01:47:30;100365.59;;;14.06;93.89
43420;BME280;29017;51.514;-0.178;2023-11-19T01:49:58;100360.28;;;14.06;93.82
43420;BME280;29017;51.514;-0.178;2023-11-19T01:52:25;100344.41;;;14.06;94.58
43420;BME280;29017;51.514;-0.178;2023-11-19T01:54:53;100354.53;;;14.03;93.67
43420;BME280;29017;51.514;-0.178;2023-11-19T01:57:22;100349.72;;;14.06;93.35
43420;BME280;29017;51.514;-0.178;2023-11-19T01:59:51;100365.94;;;14.03;93.21
43420;BME280;29017;51.514;-0.178;2023-11-19T02:02:19;100361.38;;;13.97;92.72
43420;BME280;29017;51.514;-0.178;2023-11-19T02:04:49;100376.66;;;13.95;92.83
43420;BME280;29017;51.514;-0.178;2023-11-19T02:07:17;100378.22;;;13.90;92.42
43420;BME280;29017;51.514;-0.178;2023-11-19T02:09:44;100353.56;;;13.89;93.32
43420;BME280;29017;51.514;-0.178;2023-11-19T02:12:11;100363.34;;;13.89;93.68
43420;BME280;29017;51.514;-0.178;2023-11-19T02:14:38;100360.50;;;13.90;93.54
43420;BME280;29017;51.514;-0.178;2023-11-19T02:17:05;100357.88;;;13.90;93.60
43420;BME280;29017;51.514;-0.178;2023-11-19T02:19:32;100360.13;;;13.93;94.58
43420;BME280;29017;51.514;-0.178;2023-11-19T02:21:59;100360.31;;;13.92;93.42
43420;BME280;29017;51.514;-0.178;2023-11-19T02:24:27;100366.63;;;13.91;93.45
43420;BME280;29017;51.514;-0.178;2023-11-19T02:29:25;100355.69;;;13.79;92.28
43420;BME280;29017;51.514;-0.178;2023-11-19T02:31:52;100353.59;;;13.75;92.55
43420;BME280;29017;51.514;-0.178;2023-11-19T02:34:21;100361.38;;;13.76;92.75
43420;BME280;29017;51.514;-0.178;2023-11-19T02:36:48;100349.31;;;13.74;92.73
43420;BME280;29017;51.514;-0.178;2023-11-19T02:39:16;100345.84;;;13.73;93.19
43420;BME280;29017;51.514;-0.178;2023-11-19T02:41:48;100342.38;;;13.73;93.00
43420;BME280;29017;51.514;-0.178;2023-11-19T02:44:17;100334.09;;;13.76;92.40
43420;BME280;29017;51.514;-0.178;2023-11-19T02:46:44;100321.06;;;13.74;91.74
43420;BME280;29017;51.514;-0.178;2023-11-19T02:49:11;100309.84;;;13.72;91.34
43420;BME280;29017;51.514;-0.178;2023-11-19T02:51:37;100305.38;;;13.73;91.78
43420;BME280;29017;51.514;-0.178;2023-11-19T02:54:05;100303.53;;;13.73;92.19
43420;BME280;29017;51.514;-0.178;2023-11-19T02:56:32;100302.94;;;13.71;91.88
43420;BME280;29017;51.514;-0.178;2023-11-19T02:59:02;100298.09;;;13.75;92.99
43420;BME280;29017;51.514;-0.178;2023-11-19T03:01:41;100300.56;;;13.76;93.36
43420;BME280;29017;51.514;-0.178;2023-11-19T03:04:10;100309.75;;;13.80;92.87
43420;BME280;29017;51.514;-0.178;2023-11-19T03:06:39;100304.63;;;13.79;92.41
43420;BME280;29017;51.514;-0.178;2023-11-19T03:09:05;100306.44;;;13.78;92.45
43420;BME280;29017;51.514;-0.178;2023-11-19T03:11:37;100316.41;;;13.76;91.79
43420;BME280;29017;51.514;-0.178;2023-11-19T03:14:04;100304.19;;;13.75;92.55
43420;BME280;29017;51.514;-0.178;2023-11-19T03:16:31;100296.25;;;13.75;93.08
43420;BME280;29017;51.514;-0.178;2023-11-19T03:18:59;100297.91;;;13.76;93.09
43420;BME280;29017;51.514;-0.178;2023-11-19T03:21:28;100297.91;;;13.76;92.44
43420;BME280;29017;51.514;-0.178;2023-11-19T03:23:55;100291.97;;;13.74;92.21
43420;BME280;29017;51.514;-0.178;2023-11-19T03:26:21;100296.63;;;13.72;91.96
43420;BME280;29017;51.514;-0.178;2023-11-19T03:28:48;100290.06;;;13.68;92.11
43420;BME280;29017;51.514;-0.178;2023-11-19T03:31:15;100290.25;;;13.66;92.23
43420;BME280;29017;51.514;-0.178;2023-11-19T03:33:42;100297.81;;;13.69;92.94
43420;BME280;29017;51.514;-0.178;2023-11-19T03:36:09;100293.72;;;13.67;92.16
43420;BME280;29017;51.514;-0.178;2023-11-19T03:38:36;100285.78;;;13.67;91.42
43420;BME280;29017;51.514;-0.178;2023-11-19T03:41:12;100292.72;;;13.68;91.69
43420;BME280;29017;51.514;-0.178;2023-11-19T03:43:39;100291.53;;;13.70;92.38
43420;BME280;29017;51.514;-0.178;2023-11-19T03:46:19;100286.25;;;13.70;92.30
43420;BME280;29017;51.514;-0.178;2023-11-19T03:48:46;100295.00;;;13.71;91.82
43420;BME280;29017;51.514;-0.178;2023-11-19T03:51:13;100296.00;;;13.70;92.16
43420;BME280;29017;51.514;-0.178;2023-11-19T03:53:42;100294.34;;;13.69;92.30
43420;BME280;29017;51.514;-0.178;2023-11-19T03:56:10;100288.06;;;13.70;92.64
43420;BME280;29017;51.514;-0.178;2023-11-19T03:58:37;100301.28;;;13.70;92.93
43420;BME280;29017;51.514;-0.178;2023-11-19T04:01:05;100291.88;;;13.67;91.87
43420;BME280;29017;51.514;-0.178;2023-11-19T04:03:32;100301.63;;;13.67;91.84
43420;BME280;29017;51.514;-0.178;2023-11-19T04:05:59;100294.53;;;13.67;91.89
43420;BME280;29017;51.514;-0.178;2023-11-19T04:08:26;100300.47;;;13.69;92.50
43420;BME280;29017;51.514;-0.178;2023-11-19T04:10:53;100302.94;;;13.71;92.55
43420;BME280;29017;51.514;-0.178;2023-11-19T04:13:20;100309.22;;;13.70;92.32
43420;BME280;29017;51.514;-0.178;2023-11-19T04:15:47;100308.22;;;13.71;92.20
43420;BME280;29017;51.514;-0.178;2023-11-19T04:18:14;100306.19;;;13.73;92.82
43420;BME280;29017;51.514;-0.178;2023-11-19T04:20:40;100304.94;;;13.69;92.50
43420;BME280;29017;51.514;-0.178;2023-11-19T04:23:08;100314.69;;;13.68;92.71
43420;BME280;29017;51.514;-0.178;2023-11-19T04:25:35;100311.66;;;13.71;92.81
43420;BME280;29017;51.514;-0.178;2023-11-19T04:28:02;100316.94;;;13.71;92.90
43420;BME280;29017;51.514;-0.178;2023-11-19T04:30:29;100321.44;;;13.71;92.57
43420;BME280;29017;51.514;-0.178;2023-11-19T04:32:58;100314.03;;;13.66;92.08
43420;BME280;29017;51.514;-0.178;2023-11-19T04:35:25;100305.09;;;13.67;92.97
43420;BME280;29017;51.514;-0.178;2023-11-19T04:37:53;100310.94;;;13.63;92.37
43420;BME280;29017;51.514;-0.178;2023-11-19T04:40:19;100318.28;;;13.61;92.56
43420;BME280;29017;51.514;-0.178;2023-11-19T04:42:49;100304.84;;;13.62;92.88
43420;BME280;29017;51.514;-0.178;2023-11-19T04:45:16;100308.47;;;13.61;93.42
43420;BME280;29017;51.514;-0.178;2023-11-19T04:47:43;100301.59;;;13.60;93.40
43420;BME280;29017;51.514;-0.178;2023-11-19T04:50:09;100300.56;;;13.61;93.27
43420;BME280;29017;51.514;-0.178;2023-11-19T04:52:41;100299.94;;;13.59;93.12
43420;BME280;29017;51.514;-0.178;2023-11-19T04:55:12;100308.22;;;13.56;92.76
43420;BME280;29017;51.514;-0.178;2023-11-19T04:57:41;100308.78;;;13.52;92.82
43420;BME280;29017;51.514;-0.178;2023-11-19T05:00:08;100316.34;;;13.55;93.19
43420;BME280;29017;51.514;-0.178;2023-11-19T05:02:37;100318.63;;;13.58;93.77
43420;BME280;29017;51.514;-0.178;2023-11-19T05:05:04;100309.50;;;13.60;93.43
43420;BME280;29017;51.514;-0.178;2023-11-19T05:07:32;100310.34;;;13.61;93.09
43420;BME280;29017;51.514;-0.178;2023-11-19T05:09:59;100300.38;;;13.63;92.35
43420;BME280;29017;51.514;-0.178;2023-11-19T05:12:26;100293.00;;;13.58;91.74
43420;BME280;29017;51.514;-0.178;2023-11-19T05:14:53;100300.75;;;13.60;92.17
43420;BME280;29017;51.514;-0.178;2023-11-19T05:17:20;100291.00;;;13.60;92.88
43420;BME280;29017;51.514;-0.178;2023-11-19T05:19:47;100287.16;;;13.63;92.69
43420;BME280;29017;51.514;-0.178;2023-11-19T05:22:15;100277.78;;;13.60;92.21
43420;BME280;29017;51.514;-0.178;2023-11-19T05:24:42;100284.06;;;13.59;92.01
43420;BME280;29017;51.514;-0.178;2023-11-19T05:27:08;100278.78;;;13.59;92.18
43420;BME280;29017;51.514;-0.178;2023-11-19T05:29:37;100273.06;;;13.56;92.08
43420;BME280;29017;51.514;-0.178;2023-11-19T05:32:05;100275.72;;;13.56;91.93
43420;BME280;29017;51.514;-0.178;2023-11-19T05:34:33;100278.16;;;13.57;92.43
43420;BME280;29017;51.514;-0.178;2023-11-19T05:37:00;100282.25;;;13.60;92.96
43420;BME280;29017;51.514;-0.178;2023-11-19T05:39:27;100282.88;;;13.62;92.49
43420;BME280;29017;51.514;-0.178;2023-11-19T05:41:54;100287.97;;;13.63;92.24
43420;BME280;29017;51.514;-0.178;2023-11-19T05:44:21;100278.22;;;13.64;91.36
43420;BME280;29017;51.514;-0.178;2023-11-19T05:46:48;100287.59;;;13.66;91.79
43420;BME280;29017;51.514;-0.178;2023-11-19T05:49:15;100276.66;;;13.69;91.81
43420;BME280;29017;51.514;-0.178;2023-11-19T05:51:42;100269.56;;;13.70;91.00
43420;BME280;29017;51.514;-0.178;2023-11-19T05:54:09;100261.63;;;13.70;90.48
43420;BME280;29017;51.514;-0.178;2023-11-19T05:56:36;100285.44;;;13.70;90.58
43420;BME280;29017;51.514;-0.178;2023-11-19T05:59:03;100268.56;;;13.71;91.00
43420;BME280;29017;51.514;-0.178;2023-11-19T06:01:41;100277.66;;;13.68;90.55
43420;BME280;29017;51.514;-0.178;2023-11-19T06:04:08;100278.31;;;13.70;90.72
43420;BME280;29017;51.514;-0.178;2023-11-19T06:06:35;100286.03;;;13.72;90.24
43420;BME280;29017;51.514;-0.178;2023-11-19T06:09:03;100291.78;;;13.76;90.34
43420;BME280;29017;51.514;-0.178;2023-11-19T06:11:33;100288.31;;;13.75;89.87
43420;BME280;29017;51.514;-0.178;2023-11-19T06:14:00;100297.66;;;13.71;89.30
43420;BME280;29017;51.514;-0.178;2023-11-19T06:16:27;100298.25;;;13.73;90.06
43420;BME280;29017;51.514;-0.178;2023-11-19T06:18:54;100303.19;;;13.76;90.06
43420;BME280;29017;51.514;-0.178;2023-11-19T06:21:21;100288.31;;;13.75;89.61
43420;BME280;29017;51.514;-0.178;2023-11-19T06:23:48;100300.56;;;13.76;89.58
43420;BME280;29017;51.514;-0.178;2023-11-19T06:26:15;100291.59;;;13.77;89.86
43420;BME280;29017;51.514;-0.178;2023-11-19T06:28:42;100283.47;;;13.79;90.30
43420;BME280;29017;51.514;-0.178;2023-11-19T06:31:09;100276.09;;;13.74;89.41
43420;BME280;29017;51.514;-0.178;2023-11-19T06:33:36;100291.31;;;13.72;89.34
43420;BME280;29017;51.514;-0.178;2023-11-19T06:36:03;100295.78;;;13.71;89.45
43420;BME280;29017;51.514;-0.178;2023-11-19T06:38:30;100282.41;;;13.73;89.48
43420;BME280;29017;51.514;-0.178;2023-11-19T06:40:56;100287.06;;;13.71;89.16
43420;BME280;29017;51.514;-0.178;2023-11-19T06:43:23;100285.03;;;13.73;90.75
43420;BME280;29017;51.514;-0.178;2023-11-19T06:45:50;100293.78;;;13.74;89.92
43420;BME280;29017;51.514;-0.178;2023-11-19T06:48:17;100293.78;;;13.74;89.64
43420;BME280;29017;51.514;-0.178;2023-11-19T06:50:44;100292.34;;;13.71;89.00
43420;BME280;29017;51.514;-0.178;2023-11-19T06:53:11;100295.19;;;13.69;89.02
43420;BME280;29017;51.514;-0.178;2023-11-19T06:55:37;100292.88;;;13.66;89.14
43420;BME280;29017;51.514;-0.178;2023-11-19T06:58:05;100291.72;;;13.69;89.25
43420;BME280;29017;51.514;-0.178;2023-11-19T07:00:32;100288.69;;;13.72;89.69
43420;BME280;29017;51.514;-0.178;2023-11-19T07:02:59;100292.53;;;13.69;89.04
43420;BME280;29017;51.514;-0.178;2023-11-19T07:05:30;100292.72;;;13.68;88.05
43420;BME280;29017;51.514;-0.178;2023-11-19T07:07:57;100284.97;;;13.66;88.24
43420;BME280;29017;51.514;-0.178;2023-11-19T07:10:24;100298.00;;;13.68;88.51
43420;BME280;29017;51.514;-0.178;2023-11-19T07:12:50;100301.63;;;13.67;88.76
43420;BME280;29017;51.514;-0.178;2023-11-19T07:15:18;100303.47;;;13.66;88.92
43420;BME280;29017;51.514;-0.178;2023-11-19T07:17:44;100299.19;;;13.65;87.76
43420;BME280;29017;51.514;-0.178;2023-11-19T07:20:12;100299.00;;;13.67;88.38
43420;BME280;29017;51.514;-0.178;2023-11-19T07:22:43;100299.19;;;13.65;87.28
43420;BME280;29017;51.514;-0.178;2023-11-19T07:25:15;100300.56;;;13.61;87.03
43420;BME280;29017;51.514;-0.178;2023-11-19T07:27:42;100303.41;;;13.60;87.40
43420;BME280;29017;51.514;-0.178;2023-11-19T07:30:09;100302.16;;;13.56;87.07
43420;BME280;29017;51.514;-0.178;2023-11-19T07:32:36;100308.44;;;13.55;87.84
43420;BME280;29017;51.514;-0.178;2023-11-19T07:35:08;100304.59;;;13.57;87.96
43420;BME280;29017;51.514;-0.178;2023-11-19T07:37:35;100313.34;;;13.58;87.51
43420;BME280;29017;51.514;-0.178;2023-11-19T07:40:02;100317.78;;;13.57;87.17
43420;BME280;29017;51.514;-0.178;2023-11-19T07:42:29;100316.97;;;13.57;87.32
43420;BME280;29017;51.514;-0.178;2023-11-19T07:45:03;100316.16;;;13.56;87.07
43420;BME280;29017;51.514;-0.178;2023-11-19T07:47:30;100325.16;;;13.62;87.21
43420;BME280;29017;51.514;-0.178;2023-11-19T07:49:57;100320.34;;;13.65;87.74
43420;BME280;29017;51.514;-0.178;2023-11-19T07:52:24;100322.19;;;13.65;85.46
43420;BME280;29017;51.514;-0.178;2023-11-19T07:54:50;100325.66;;;13.65;85.77
43420;BME280;29017;51.514;-0.178;2023-11-19T07:57:17;100316.69;;;13.66;85.20
43420;BME280;29017;51.514;-0.178;2023-11-19T07:59:44;100323.44;;;13.69;85.53
43420;BME280;29017;51.514;-0.178;2023-11-19T08:02:11;100330.16;;;13.71;85.24
43420;BME280;29017;51.514;-0.178;2023-11-19T08:04:38;100321.88;;;13.75;85.99
43420;BME280;29017;51.514;-0.178;2023-11-19T08:07:06;100326.34;;;13.74;85.86
43420;BME280;29017;51.514;-0.178;2023-11-19T08:09:33;100311.31;;;13.75;85.49
43420;BME280;29017;51.514;-0.178;2023-11-19T08:12:00;100319.66;;;13.78;85.67
43420;BME280;29017;51.514;-0.178;2023-11-19T08:14:27;100309.47;;;13.75;84.41
43420;BME280;29017;51.514;-0.178;2023-11-19T08:16:54;100310.09;;;13.77;85.17
43420;BME280;29017;51.514;-0.178;2023-11-19T08:19:21;100312.56;;;13.79;85.25
43420;BME280;29017;51.514;-0.178;2023-11-19T08:21:48;100311.19;;;13.83;85.78
43420;BME280;29017;51.514;-0.178;2023-11-19T08:24:15;100314.81;;;13.82;84.38
43420;BME280;29017;51.514;-0.178;2023-11-19T08:26:41;100321.16;;;13.81;84.49
43420;BME280;29017;51.514;-0.178;2023-11-19T08:29:08;100312.75;;;13.77;84.75
43420;BME280;29017;51.514;-0.178;2023-11-19T08:31:35;100322.97;;;13.80;85.39
43420;BME280;29017;51.514;-0.178;2023-11-19T08:34:02;100312.00;;;13.83;85.27
43420;BME280;29017;51.514;-0.178;2023-11-19T08:36:29;100316.94;;;13.86;86.54
43420;BME280;29017;51.514;-0.178;2023-11-19T08:38:58;100318.56;;;13.87;85.38
43420;BME280;29017;51.514;-0.178;2023-11-19T08:41:25;100323.66;;;13.89;83.97
43420;BME280;29017;51.514;-0.178;2023-11-19T08:43:52;100319.84;;;13.91;84.17
43420;BME280;29017;51.514;-0.178;2023-11-19T08:46:18;100318.00;;;13.92;84.54
43420;BME280;29017;51.514;-0.178;2023-11-19T08:48:45;100322.53;;;13.98;84.78
43420;BME280;29017;51.514;-0.178;2023-11-19T08:51:12;100323.00;;;14.01;84.34
43420;BME280;29017;51.514;-0.178;2023-11-19T08:53:39;100334.38;;;14.02;84.42
43420;BME280;29017;51.514;-0.178;2023-11-19T08:56:06;100327.72;;;14.06;84.22
43420;BME280;29017;51.514;-0.178;2023-11-19T08:58:33;100333.44;;;14.09;83.75
43420;BME280;29017;51.514;-0.178;2023-11-19T09:01:00;100337.00;;;14.17;84.04
43420;BME280;29017;51.514;-0.178;2023-11-19T09:03:27;100333.53;;;14.16;83.78
43420;BME280;29017;51.514;-0.178;2023-11-19T09:05:54;100327.59;;;14.14;84.34
43420;BME280;29017;51.514;-0.178;2023-11-19T09:08:21;100330.50;;;14.19;85.50
43420;BME280;29017;51.514;-0.178;2023-11-19T09:10:48;100325.28;;;14.26;85.73
43420;BME280;29017;51.514;-0.178;2023-11-19T09:13:14;100321.25;;;14.30;85.62
43420;BME280;29017;51.514;-0.178;2023-11-19T09:15:41;100326.63;;;14.36;85.61
43420;BME280;29017;51.514;-0.178;2023-11-19T09:18:09;100320.59;;;14.42;85.84
43420;BME280;29017;51.514;-0.178;2023-11-19T09:20:36;100323.66;;;14.46;84.87
43420;BME280;29017;51.514;-0.178;2023-11-19T09:23:05;100318.97;;;14.48;84.33
43420;BME280;29017;51.514;-0.178;2023-11-19T09:25:33;100321.44;;;14.49;84.55
43420;BME280;29017;51.514;-0.178;2023-11-19T09:28:03;100326.16;;;14.54;85.21
43420;BME280;29017;51.514;-0.178;2023-11-19T09:30:30;100325.97;;;14.55;84.48
43420;BME280;29017;51.514;-0.178;2023-11-19T09:33:00;100326.81;;;14.56;84.67
43420;BME280;29017;51.514;-0.178;2023-11-19T09:35:27;100325.16;;;14.55;83.59
43420;BME280;29017;51.514;-0.178;2023-11-19T09:37:54;100323.50;;;14.54;83.47
43420;BME280;29017;51.514;-0.178;2023-11-19T09:40:21;100317.41;;;14.53;84.13
43420;BME280;29017;51.514;-0.178;2023-11-19T09:42:48;100332.22;;;14.48;83.43
43420;BME280;29017;51.514;-0.178;2023-11-19T09:45:15;100322.44;;;14.48;84.49
43420;BME280;29017;51.514;-0.178;2023-11-19T09:47:43;100327.13;;;14.46;85.02
43420;BME280;29017;51.514;-0.178;2023-11-19T09:50:18;100321.00;;;14.46;85.71
43420;BME280;29017;51.514;-0.178;2023-11-19T09:52:47;100320.63;;;14.49;86.40
43420;BME280;29017;51.514;-0.178;2023-11-19T09:55:14;100322.91;;;14.52;86.58
43420;BME280;29017;51.514;-0.178;2023-11-19T09:57:41;100312.09;;;14.53;87.28
43420;BME280;29017;51.514;-0.178;2023-11-19T10:00:11;100309.66;;;14.52;87.72
43420;BME280;29017;51.514;-0.178;2023-11-19T10:02:42;100307.19;;;14.50;87.23
43420;BME280;29017;51.514;-0.178;2023-11-19T10:05:13;100301.72;;;14.52;87.59
43420;BME280;29017;51.514;-0.178;2023-11-19T10:07:42;100304.16;;;14.53;87.46
43420;BME280;29017;51.514;-0.178;2023-11-19T10:10:11;100300.06;;;14.51;86.99
43420;BME280;29017;51.514;-0.178;2023-11-19T10:12:45;100301.38;;;14.62;88.00
43420;BME280;29017;51.514;-0.178;2023-11-19T10:15:23;100304.47;;;14.65;86.68
43420;BME280;29017;51.514;-0.178;2023-11-19T10:17:59;100305.94;;;14.74;86.31
43420;BME280;29017;51.514;-0.178;2023-11-19T10:20:26;100318.44;;;14.80;85.17
43420;BME280;29017;51.514;-0.178;2023-11-19T10:22:53;100314.63;;;14.89;84.62
43420;BME280;29017;51.514;-0.178;2023-11-19T10:25:22;100306.91;;;14.94;82.82
43420;BME280;29017;51.514;-0.178;2023-11-19T10:27:53;100306.56;;;15.04;82.63
43420;BME280;29017;51.514;-0.178;2023-11-19T10:30:24;100301.94;;;15.13;82.73
43420;BME280;29017;51.514;-0.178;2023-11-19T10:33:08;100304.66;;;15.26;82.81
43420;BME280;29017;51.514;-0.178;2023-11-19T10:35:36;100305.94;;;15.36;81.10
43420;BME280;29017;51.514;-0.178;2023-11-19T10:38:29;100297.78;;;15.38;78.92
43420;BME280;29017;51.514;-0.178;2023-11-19T10:40:57;100295.97;;;15.38;77.68
43420;BME280;29017;51.514;-0.178;2023-11-19T10:43:24;100299.44;;;15.46;80.81
43420;BME280;29017;51.514;-0.178;2023-11-19T10:45:52;100288.00;;;15.45;78.36
43420;BME280;29017;51.514;-0.178;2023-11-19T10:48:19;100298.00;;;15.43;77.87
43420;BME280;29017;51.514;-0.178;2023-11-19T10:50:53;100291.44;;;15.39;77.34
43420;BME280;29017;51.514;-0.178;2023-11-19T10:53:23;100292.25;;;15.39;77.19
43420;BME280;29017;51.514;-0.178;2023-11-19T10:55:53;100277.81;;;15.42;76.68
43420;BME280;29017;51.514;-0.178;2023-11-19T10:58:24;100294.97;;;15.46;76.62
43420;BME280;29017;51.514;-0.178;2023-11-19T11:00:56;100285.16;;;15.47;77.24
43420;BME280;29017;51.514;-0.178;2023-11-19T11:03:27;100291.28;;;15.47;76.21
43420;BME280;29017;51.514;-0.178;2023-11-19T11:05:56;100289.06;;;15.51;76.54
43420;BME280;29017;51.514;-0.178;2023-11-19T11:08:24;100290.31;;;15.55;75.92
43420;BME280;29017;51.514;-0.178;2023-11-19T11:10:55;100297.50;;;15.54;75.64
43420;BME280;29017;51.514;-0.178;2023-11-19T11:13:24;100289.31;;;15.56;76.18
43420;BME280;29017;51.514;-0.178;2023-11-19T11:15:51;100291.78;;;15.57;75.93
43420;BME280;29017;51.514;-0.178;2023-11-19T11:18:18;100288.31;;;15.57;74.82
43420;BME280;29017;51.514;-0.178;2023-11-19T11:20:45;100290.72;;;15.52;74.16
43420;BME280;29017;51.514;-0.178;2023-11-19T11:26:00;100283.19;;;15.55;74.70
43420;BME280;29017;51.514;-0.178;2023-11-19T11:31:27;100273.22;;;15.57;75.19
43420;BME280;29017;51.514;-0.178;2023-11-19T11:36:36;100277.31;;;15.66;75.40
43420;BME280;29017;51.514;-0.178;2023-11-19T11:39:07;100288.13;;;15.65;75.77
43420;BME280;29017;51.514;-0.178;2023-11-19T11:41:35;100267.94;;;15.64;76.72
43420;BME280;29017;51.514;-0.178;2023-11-19T11:44:01;100268.13;;;15.62;78.60
43420;BME280;29017;51.514;-0.178;2023-11-19T11:48:56;100252.41;;;15.61;78.08
43420;BME280;29017;51.514;-0.178;2023-11-19T11:54:10;100241.19;;;15.59;78.56
43420;BME280;29017;51.514;-0.178;2023-11-19T11:56:37;100238.53;;;15.59;77.63
43420;BME280;29017;51.514;-0.178;2023-11-19T11:59:08;100237.72;;;15.58;76.64
43420;BME280;29017;51.514;-0.178;2023-11-19T12:01:35;100254.47;;;15.59;77.79
43420;BME280;29017;51.514;-0.178;2023-11-19T12:04:03;100254.00;;;15.55;77.65
43420;BME280;29017;51.514;-0.178;2023-11-19T12:06:32;100252.00;;;15.57;78.14
43420;BME280;29017;51.514;-0.178;2023-11-19T12:08:59;100256.88;;;15.60;77.51
43420;BME280;29017;51.514;-0.178;2023-11-19T12:11:27;100243.03;;;15.65;77.62
43420;BME280;29017;51.514;-0.178;2023-11-19T12:13:55;100248.97;;;15.67;78.09
43420;BME280;29017;51.514;-0.178;2023-11-19T12:16:25;100253.25;;;15.68;78.25
43420;BME280;29017;51.514;-0.178;2023-11-19T12:18:54;100247.53;;;15.71;78.08
43420;BME280;29017;51.514;-0.178;2023-11-19T12:21:28;100238.97;;;15.75;78.63
43420;BME280;29017;51.514;-0.178;2023-11-19T12:23:58;100247.97;;;15.74;77.12
43420;BME280;29017;51.514;-0.178;2023-11-19T12:26:31;100252.03;;;15.77;77.79
43420;BME280;29017;51.514;-0.178;2023-11-19T12:28:58;100248.38;;;15.78;77.34
43420;BME280;29017;51.514;-0.178;2023-11-19T12:31:26;100246.13;;;15.81;77.74
43420;BME280;29017;51.514;-0.178;2023-11-19T12:33:53;100222.06;;;15.83;77.39
43420;BME280;29017;51.514;-0.178;2023-11-19T12:36:20;100230.44;;;15.87;77.57
43420;BME280;29017;51.514;-0.178;2023-11-19T12:38:47;100216.16;;;15.88;77.53
43420;BME280;29017;51.514;-0.178;2023-11-19T12:41:14;100231.25;;;15.87;77.49
43420;BME280;29017;51.514;-0.178;2023-11-19T12:43:44;100219.44;;;15.90;79.37
43420;BME280;29017;51.514;-0.178;2023-11-19T12:46:17;100219.19;;;15.91;79.56
43420;BME280;29017;51.514;-0.178;2023-11-19T12:48:49;100209.81;;;15.95;79.17
43420;BME280;29017;51.514;-0.178;2023-11-19T12:51:16;100208.19;;;15.94;78.06
43420;BME280;29017;51.514;-0.178;2023-11-19T12:53:50;100202.47;;;15.97;78.73
43420;BME280;29017;51.514;-0.178;2023-11-19T12:56:17;100208.81;;;16.03;79.81
43420;BME280;29017;51.514;-0.178;2023-11-19T12:58:44;100205.16;;;16.04;77.27
43420;BME280;29017;51.514;-0.178;2023-11-19T13:01:15;100195.53;;;16.03;76.50